This is the latest recevied weather packets stored in our database for station/object EA5AER-5. If no packets are shown the sender has not sent any weather packets the latest 1 day(s).
| Time | Temp. | Humidity | Pressure | Rain* | Wind** | Luminosity | Snow |
|---|---|---|---|---|---|---|---|
| 1778021699 | 21.11° C | 46% | 1008.5 hPa | 0 mm | 2.68 m/s, 315° | 0 W/m² | - |
| 1778020391 | 21.11° C | 46% | 1008.5 hPa | 0 mm | 2.68 m/s, 315° | 0 W/m² | - |
| 1778019168 | 21.11° C | 47% | 1008.3 hPa | 0 mm | 0.89 m/s, 298° | 0 W/m² | - |
| 1778017854 | 21.11° C | 47% | 1008.3 hPa | 0 mm | 0.89 m/s, 298° | 0 W/m² | - |
| 1778016757 | 21.11° C | 47% | 1008.3 hPa | 0 mm | 0.89 m/s, 298° | 0 W/m² | - |
| 1778015536 | 21.11° C | 42% | 1008.3 hPa | 0 mm | 2.24 m/s, 235° | 0 W/m² | - |
| 1778014318 | 21.11° C | 42% | 1008.3 hPa | 0 mm | 2.24 m/s, 235° | 0 W/m² | - |
| 1778013098 | 21.11° C | 43% | 1008.1 hPa | 0 mm | 3.58 m/s, 217° | 0 W/m² | - |
| 1778011884 | 21.11° C | 42% | 1008.1 hPa | 0 mm | 4.02 m/s, 219° | 0 W/m² | - |
| 1778010717 | 20.56° C | 45% | 1007.4 hPa | 0 mm | 3.13 m/s, 167° | 0 W/m² | - |
| 1778009484 | 20.56° C | 45% | 1007.4 hPa | 0 mm | 3.13 m/s, 167° | 0 W/m² | - |
| 1778008313 | 20° C | 56% | 1007.1 hPa | 0.76 mm | 5.36 m/s, 175° | 23 W/m² | - |
| 1778007148 | 20° C | 56% | 1007.1 hPa | 0.76 mm | 5.36 m/s, 175° | 23 W/m² | - |
| 1778005899 | 20° C | 56% | 1007.1 hPa | 0.76 mm | 5.36 m/s, 175° | 23 W/m² | - |
| 1778004679 | 18.89° C | 63% | 1007.1 hPa | 0.76 mm | 4.02 m/s, 175° | 30 W/m² | - |
| 1778003442 | 21.11° C | 51% | 1006.8 hPa | 0 mm | 6.26 m/s, 164° | 28 W/m² | - |
| 1778002144 | 21.11° C | 49% | 1006.7 hPa | 0 mm | 5.81 m/s, 162° | 39 W/m² | - |
| 1778000856 | 21.67° C | 60% | 1006.9 hPa | 0 mm | 5.36 m/s, 178° | 454 W/m² | - |
| 1777999678 | 21.67° C | 60% | 1006.9 hPa | 0 mm | 5.36 m/s, 178° | 454 W/m² | - |
| 1777998522 | 21.67° C | 60% | 1006.9 hPa | 0 mm | 5.36 m/s, 178° | 454 W/m² | - |
| 1777997339 | 21.67° C | 60% | 1006.8 hPa | 0 mm | 5.81 m/s, 164° | 431 W/m² | - |
| 1777996149 | 21.67° C | 60% | 1006.8 hPa | 0 mm | 4.47 m/s, 186° | 450 W/m² | - |
| 1777994954 | 21.11° C | 66% | 1007.1 hPa | 0 mm | 4.47 m/s, 199° | 148 W/m² | - |
| 1777993749 | 21.67° C | 63% | 1007.6 hPa | 0.25 mm | 3.58 m/s, 161° | 213 W/m² | - |
| 1777992599 | 21.67° C | 63% | 1007.6 hPa | 0.25 mm | 3.58 m/s, 161° | 213 W/m² | - |
* Rain latest hour (hover to see other rain measurements)
** Current wind speed in m/s (hover to see current wind gust speed)